createdAt,value
2022-09-28T00:00:18.602Z,96477.06
2022-09-28T00:02:45.353Z,96341.44
2022-09-28T00:05:12.043Z,96390.84
2022-09-28T00:07:38.882Z,96428.66
2022-09-28T00:10:05.899Z,96384.16
2022-09-28T00:12:32.541Z,96392.09
2022-09-28T00:14:59.112Z,96346.06
2022-09-28T00:17:25.754Z,96401.59
2022-09-28T00:19:52.501Z,96409.03
2022-09-28T00:22:19.232Z,96430.63
2022-09-28T00:24:45.806Z,96394.09
2022-09-28T00:27:12.521Z,96381.22
2022-09-28T00:29:39.112Z,96348.94
2022-09-28T00:32:09.769Z,96329.00
2022-09-28T00:34:38.773Z,96336.06
2022-09-28T00:37:07.144Z,96224.53
2022-09-28T00:39:33.771Z,96370.94
2022-09-28T00:42:00.549Z,96298.19
2022-09-28T00:44:27.218Z,96391.56
2022-09-28T00:47:12.688Z,96398.09
2022-09-28T00:50:03.211Z,96363.50
2022-09-28T00:52:38.709Z,96399.97
2022-09-28T00:55:09.625Z,96348.56
2022-09-28T00:57:39.891Z,96367.81
2022-09-28T01:00:07.309Z,96346.41
2022-09-28T01:02:34.221Z,96394.97
2022-09-28T01:05:03.197Z,96330.19
2022-09-28T01:07:32.049Z,96308.84
2022-09-28T01:09:58.943Z,96355.19
2022-09-28T01:12:25.679Z,96088.91
2022-09-28T01:14:52.744Z,96312.84
2022-09-28T01:17:37.090Z,96361.47
2022-09-28T01:20:13.440Z,96357.47
2022-09-28T01:22:40.507Z,96352.88
2022-09-28T01:25:40.709Z,96340.72
2022-09-28T01:28:19.902Z,96337.06
2022-09-28T01:30:58.634Z,96334.34
2022-09-28T01:33:32.471Z,96340.47
2022-09-28T01:36:25.317Z,96299.06
2022-09-28T01:39:28.844Z,96338.38
2022-09-28T01:42:00.763Z,96269.63
2022-09-28T01:44:30.780Z,96279.16
2022-09-28T01:46:59.531Z,96283.31
2022-09-28T01:49:34.068Z,96232.81
2022-09-28T01:52:21.854Z,96189.72
2022-09-28T01:55:09.563Z,96207.34
2022-09-28T01:57:42.444Z,96313.75
2022-09-28T02:00:13.859Z,96241.78
2022-09-28T02:03:21.574Z,96308.16
2022-09-28T02:06:07.895Z,96286.06
2022-09-28T02:08:40.170Z,96226.91
2022-09-28T02:11:17.978Z,96245.91
2022-09-28T02:14:00.752Z,96296.75
2022-09-28T02:16:41.231Z,96223.97
2022-09-28T02:19:29.178Z,96290.41
2022-09-28T02:22:02.625Z,96287.13
2022-09-28T02:24:40.165Z,96281.22
2022-09-28T02:27:20.626Z,96291.50
2022-09-28T02:29:48.524Z,96237.34
2022-09-28T02:32:16.825Z,96246.97
2022-09-28T02:34:43.742Z,96203.34
2022-09-28T02:37:10.638Z,96250.19
2022-09-28T02:39:37.410Z,96221.78
2022-09-28T02:42:06.965Z,96271.91
2022-09-28T02:45:00.344Z,96268.06
2022-09-28T02:47:48.235Z,96224.22
2022-09-28T02:50:21.221Z,96273.31
2022-09-28T02:53:07.601Z,96214.00
2022-09-28T02:55:52.596Z,96261.06
2022-09-28T02:58:52.645Z,96241.28
2022-09-28T03:01:40.761Z,96259.72
2022-09-28T03:04:19.088Z,96252.63
2022-09-28T03:06:48.096Z,96240.41
2022-09-28T03:09:23.281Z,96155.84
2022-09-28T03:12:06.596Z,96216.31
2022-09-28T03:14:33.576Z,96202.03
2022-09-28T03:17:00.237Z,96161.56
2022-09-28T03:19:31.418Z,96174.34
2022-09-28T03:21:59.327Z,96208.91
2022-09-28T03:24:26.622Z,96224.84
2022-09-28T03:26:53.344Z,96186.16
2022-09-28T03:29:20.188Z,96208.25
2022-09-28T03:31:51.466Z,96149.09
2022-09-28T03:34:18.399Z,96191.56
2022-09-28T03:36:45.041Z,96180.69
2022-09-28T03:39:11.904Z,96163.53
2022-09-28T03:41:38.558Z,96156.59
2022-09-28T03:44:05.517Z,96140.72
2022-09-28T03:46:33.132Z,96032.28
2022-09-28T03:49:05.160Z,96125.09
2022-09-28T03:51:31.977Z,96131.16
2022-09-28T03:53:58.614Z,96039.97
2022-09-28T03:56:25.839Z,96036.53
2022-09-28T03:58:52.725Z,96030.47
2022-09-28T04:01:19.496Z,96108.41
2022-09-28T04:03:47.734Z,96187.28
2022-09-28T04:06:15.360Z,96025.44
2022-09-28T04:08:42.147Z,96170.25
2022-09-28T04:11:08.938Z,95879.91
2022-09-28T04:13:35.672Z,96123.50
2022-09-28T04:16:02.493Z,96089.09
2022-09-28T04:18:33.201Z,96164.44
2022-09-28T04:21:21.361Z,96160.19
2022-09-28T04:23:53.577Z,96154.25
2022-09-28T04:26:23.698Z,96152.78
2022-09-28T04:28:50.931Z,96114.50
2022-09-28T04:31:21.639Z,96101.34
2022-09-28T04:33:48.905Z,96136.31
2022-09-28T04:36:15.678Z,96079.72
2022-09-28T04:38:52.770Z,96125.22
2022-09-28T04:41:22.623Z,96150.84
2022-09-28T04:43:50.423Z,96130.34
2022-09-28T04:46:17.594Z,96140.88
2022-09-28T04:48:52.846Z,96103.16
2022-09-28T04:51:35.422Z,96144.44
2022-09-28T04:54:02.246Z,96088.31
2022-09-28T04:56:28.826Z,96093.13
2022-09-28T04:58:55.518Z,96091.84
2022-09-28T05:01:22.885Z,96102.38
2022-09-28T05:04:07.940Z,96117.22
2022-09-28T05:06:51.080Z,96010.38
2022-09-28T05:09:18.042Z,96020.22
2022-09-28T05:11:44.843Z,96056.53
2022-09-28T05:14:16.586Z,96085.13
2022-09-28T05:16:44.699Z,96118.94
2022-09-28T05:19:26.749Z,96097.69
2022-09-28T05:21:58.780Z,96008.59
2022-09-28T05:24:25.424Z,96045.03
2022-09-28T05:26:53.560Z,96094.25
2022-09-28T05:29:20.317Z,95994.66
2022-09-28T05:32:05.707Z,96056.09
2022-09-28T05:34:52.904Z,96091.63
2022-09-28T05:37:25.149Z,96102.25
2022-09-28T05:39:51.899Z,95984.97
2022-09-28T05:42:18.522Z,96042.66
2022-09-28T05:44:45.409Z,96073.56
2022-09-28T05:47:12.413Z,96033.03
2022-09-28T05:49:39.242Z,96107.97
2022-09-28T05:52:05.984Z,96091.72
2022-09-28T05:54:37.045Z,96090.16
2022-09-28T05:57:05.502Z,96096.91
2022-09-28T05:59:32.375Z,96062.38
2022-09-28T06:02:01.115Z,95950.84
2022-09-28T06:04:27.833Z,95823.94
2022-09-28T06:06:55.245Z,95950.03
2022-09-28T06:09:25.811Z,96042.19
2022-09-28T06:11:55.577Z,96093.09
2022-09-28T06:14:32.749Z,96059.19
2022-09-28T06:16:59.484Z,96115.28
2022-09-28T06:19:26.213Z,96027.78
2022-09-28T06:22:28.045Z,96057.22
2022-09-28T06:25:00.739Z,96111.38
2022-09-28T06:27:27.412Z,96074.81
2022-09-28T06:29:54.121Z,95949.91
2022-09-28T06:32:20.767Z,96067.41
2022-09-28T06:34:52.845Z,96115.13
2022-09-28T06:37:24.419Z,96087.44
2022-09-28T06:39:51.135Z,95957.56
2022-09-28T06:42:17.971Z,96056.38
2022-09-28T06:45:16.716Z,96104.16
2022-09-28T06:48:04.708Z,96075.25
2022-09-28T06:50:39.448Z,96036.66
2022-09-28T06:53:14.021Z,96115.38
2022-09-28T06:55:55.065Z,96070.88
2022-09-28T06:58:22.845Z,96072.03
2022-09-28T07:00:53.172Z,96137.38
2022-09-28T07:03:22.794Z,96153.53
2022-09-28T07:06:12.859Z,96094.53
2022-09-28T07:08:45.347Z,96130.34
2022-09-28T07:11:39.249Z,96163.69
2022-09-28T07:14:41.373Z,96115.28
2022-09-28T07:17:14.136Z,96161.88
2022-09-28T07:19:42.547Z,96112.38
2022-09-28T07:22:09.732Z,96104.94
2022-09-28T07:24:36.467Z,96141.03
2022-09-28T07:27:26.789Z,96125.09
2022-09-28T07:30:13.510Z,96152.34
2022-09-28T07:32:57.992Z,96130.00
2022-09-28T07:35:56.786Z,96162.03
2022-09-28T07:38:27.733Z,96138.59
2022-09-28T07:40:56.800Z,96212.41
2022-09-28T07:43:24.593Z,96174.72
2022-09-28T07:45:54.926Z,96169.91
2022-09-28T07:48:26.396Z,96225.19
2022-09-28T07:51:08.547Z,96218.50
2022-09-28T07:53:50.777Z,96222.84
2022-09-28T07:56:40.393Z,96230.03
2022-09-28T07:59:29.399Z,96198.19
2022-09-28T08:02:18.642Z,96238.28
2022-09-28T08:05:09.999Z,96237.63
2022-09-28T08:07:38.342Z,96184.13
2022-09-28T08:10:28.427Z,96205.63
2022-09-28T08:13:07.534Z,96179.53
2022-09-28T08:16:04.826Z,96256.72
2022-09-28T08:18:58.290Z,96270.31
2022-09-28T08:21:25.600Z,96210.25
2022-09-28T08:23:52.357Z,96273.19
2022-09-28T08:26:19.095Z,96226.53
2022-09-28T08:28:46.955Z,96281.88
2022-09-28T08:31:40.081Z,96164.09
2022-09-28T08:34:25.883Z,96285.78
2022-09-28T08:37:10.853Z,96207.66
2022-09-28T08:39:56.361Z,96238.31
2022-09-28T08:42:42.865Z,96229.06
2022-09-28T08:45:30.779Z,96242.28
2022-09-28T08:48:07.021Z,96255.25
2022-09-28T08:51:19.595Z,96249.63
2022-09-28T08:54:12.654Z,96302.09
2022-09-28T08:57:05.750Z,96275.38
2022-09-28T08:59:55.299Z,96315.72
2022-09-28T09:02:31.635Z,96286.47
2022-09-28T09:05:16.175Z,96306.38
2022-09-28T09:08:25.858Z,96306.72
2022-09-28T09:10:59.410Z,96118.69
2022-09-28T09:14:06.881Z,96313.75
2022-09-28T09:16:54.629Z,96316.72
2022-09-28T09:20:18.379Z,96321.34
2022-09-28T09:23:31.070Z,96262.81
2022-09-28T09:26:26.328Z,96249.22
2022-09-28T09:28:56.499Z,96334.28
2022-09-28T09:31:49.399Z,96340.81
2022-09-28T09:34:37.513Z,96344.28
2022-09-28T09:38:20.875Z,96348.38
2022-09-28T09:41:11.297Z,96354.16
2022-09-28T09:44:50.139Z,96258.34
2022-09-28T09:47:53.398Z,96308.31
2022-09-28T09:50:23.509Z,96330.00
2022-09-28T09:52:53.286Z,96351.63
2022-09-28T09:55:29.830Z,96331.53
2022-09-28T09:58:25.456Z,96317.16
2022-09-28T10:01:08.260Z,96348.47
2022-09-28T10:03:58.676Z,96329.81
2022-09-28T10:06:32.244Z,96333.00
2022-09-28T10:09:10.833Z,96217.28
2022-09-28T10:11:43.648Z,96265.81
2022-09-28T10:14:16.553Z,96261.78
2022-09-28T10:16:55.740Z,96291.97
2022-09-28T10:19:42.225Z,96334.66
2022-09-28T10:22:48.448Z,96352.03
2022-09-28T10:25:18.730Z,96354.75
2022-09-28T10:27:48.523Z,96358.09
2022-09-28T10:30:25.680Z,96350.88
2022-09-28T10:32:54.363Z,96325.47
2022-09-28T10:35:24.351Z,96368.22
2022-09-28T10:37:59.319Z,96358.69
2022-09-28T10:40:55.262Z,96333.94
2022-09-28T10:44:02.339Z,96369.41
2022-09-28T10:46:29.344Z,96335.66
2022-09-28T10:49:16.920Z,96315.06
2022-09-28T10:51:52.595Z,96381.34
2022-09-28T10:54:28.440Z,96394.38
2022-09-28T10:56:58.773Z,96107.28
2022-09-28T10:59:46.536Z,96240.41
2022-09-28T11:02:36.337Z,96334.22
2022-09-28T11:05:21.716Z,96401.06
2022-09-28T11:07:49.360Z,96120.41
2022-09-28T11:10:26.436Z,96387.25
2022-09-28T11:12:57.711Z,96220.66
2022-09-28T11:15:30.292Z,96313.38
2022-09-28T11:18:19.086Z,96396.22
2022-09-28T11:20:45.913Z,96394.84
2022-09-28T11:23:30.359Z,96388.41
2022-09-28T11:26:08.577Z,96343.09
2022-09-28T11:28:37.549Z,96396.78
2022-09-28T11:31:11.758Z,96375.44
2022-09-28T11:34:57.577Z,96397.47
2022-09-28T11:37:31.633Z,96404.09
2022-09-28T11:40:05.553Z,96343.41
2022-09-28T11:42:44.484Z,96412.19
2022-09-28T11:45:29.608Z,96409.69
2022-09-28T11:48:03.786Z,96355.44
2022-09-28T11:50:47.726Z,96402.13
2022-09-28T11:53:27.369Z,96403.22
2022-09-28T11:56:18.582Z,96396.09
2022-09-28T11:58:55.665Z,96413.06
2022-09-28T12:01:42.365Z,96355.44
2022-09-28T12:04:52.366Z,96371.84
2022-09-28T12:07:28.218Z,96431.19
2022-09-28T12:09:59.597Z,96372.50
2022-09-28T12:12:49.537Z,96434.00
2022-09-28T12:15:19.107Z,96431.00
2022-09-28T12:17:54.710Z,96432.16
2022-09-28T12:20:26.912Z,96429.28
2022-09-28T12:22:53.548Z,96423.91
2022-09-28T12:25:23.080Z,96346.91
2022-09-28T12:28:01.638Z,96416.81
2022-09-28T12:30:33.055Z,96277.31
2022-09-28T12:33:06.956Z,96360.06
2022-09-28T12:35:54.767Z,96423.88
2022-09-28T12:38:40.186Z,96426.63
2022-09-28T12:41:18.985Z,96431.66
2022-09-28T12:44:15.078Z,96376.47
2022-09-28T12:46:56.901Z,96426.47
2022-09-28T12:52:37.320Z,96425.78
2022-09-28T12:55:13.109Z,96433.50
2022-09-28T12:57:56.659Z,96427.47
2022-09-28T13:00:26.008Z,96423.00
2022-09-28T13:03:01.606Z,96424.03
2022-09-28T13:05:50.482Z,96381.44
2022-09-28T13:08:29.795Z,96407.44
2022-09-28T13:11:07.905Z,96434.78
2022-09-28T13:13:53.077Z,96433.16
2022-09-28T13:16:27.734Z,96328.84
2022-09-28T13:19:20.366Z,96425.97
2022-09-28T13:21:51.906Z,96369.59
2022-09-28T13:24:33.150Z,96439.69
2022-09-28T13:27:09.710Z,96384.09
2022-09-28T13:32:08.061Z,96386.88
2022-09-28T13:34:36.743Z,96416.47
2022-09-28T13:37:15.595Z,96475.47
2022-09-28T13:39:45.445Z,96485.19
2022-09-28T13:42:24.133Z,96486.78
2022-09-28T13:45:02.424Z,96497.53
2022-09-28T13:47:32.469Z,96491.81
2022-09-28T13:50:28.319Z,96496.75
2022-09-28T13:53:10.582Z,96452.47
2022-09-28T13:55:59.224Z,96449.25
2022-09-28T13:58:59.412Z,96482.94
2022-09-28T14:01:52.342Z,96485.50
2022-09-28T14:04:22.765Z,96489.84
2022-09-28T14:06:55.594Z,96431.94
2022-09-28T14:09:29.995Z,96405.91
2022-09-28T14:12:01.515Z,96419.78
2022-09-28T14:14:46.247Z,96459.50
2022-09-28T14:17:19.057Z,96484.03
2022-09-28T14:19:52.580Z,96424.91
2022-09-28T14:22:30.347Z,96467.22
2022-09-28T14:25:22.796Z,96483.44
2022-09-28T14:27:52.653Z,96489.09
2022-09-28T14:30:25.549Z,96489.81
2022-09-28T14:33:00.300Z,96432.63
2022-09-28T14:35:31.944Z,96468.09
2022-09-28T14:38:33.228Z,96487.34
2022-09-28T14:41:04.456Z,96477.16
2022-09-28T14:43:34.483Z,96480.16
2022-09-28T14:46:10.207Z,96484.16
2022-09-28T14:48:50.582Z,96435.13
2022-09-28T14:51:26.546Z,96488.19
2022-09-28T14:53:55.309Z,96475.13
2022-09-28T14:56:22.269Z,96487.81
2022-09-28T14:58:57.095Z,96446.13
2022-09-28T15:01:25.884Z,96495.97
2022-09-28T15:03:58.515Z,96495.38
2022-09-28T15:06:26.159Z,96504.00
2022-09-28T15:08:52.727Z,96475.47
2022-09-28T15:11:25.517Z,96371.03
2022-09-28T15:14:05.935Z,96487.84
2022-09-28T15:16:33.398Z,96459.00
2022-09-28T15:19:25.562Z,96521.63
2022-09-28T15:21:52.715Z,96392.28
2022-09-28T15:24:25.222Z,96509.44
2022-09-28T15:26:52.033Z,96360.13
2022-09-28T15:29:20.740Z,96492.56
2022-09-28T15:31:51.060Z,96491.69
2022-09-28T15:34:46.840Z,96514.72
2022-09-28T15:37:16.824Z,96457.53
2022-09-28T15:39:43.645Z,96516.47
2022-09-28T15:42:10.489Z,96469.03
2022-09-28T15:44:38.574Z,96398.34
2022-09-28T15:47:26.195Z,96501.91
2022-09-28T15:50:05.829Z,96485.78
2022-09-28T15:52:37.941Z,96535.38
2022-09-28T15:55:18.536Z,96448.78
2022-09-28T15:57:45.354Z,96495.38
2022-09-28T16:00:21.021Z,96532.63
2022-09-28T16:03:06.708Z,96532.59
2022-09-28T16:05:36.333Z,96536.38
2022-09-28T16:08:05.325Z,96540.13
2022-09-28T16:10:34.045Z,96407.50
2022-09-28T16:13:16.117Z,96512.06
2022-09-28T16:15:43.771Z,96509.00
2022-09-28T16:18:13.251Z,96544.28
2022-09-28T16:20:41.734Z,96480.84
2022-09-28T16:23:17.354Z,96549.25
2022-09-28T16:25:56.696Z,96516.59
2022-09-28T16:28:38.620Z,96559.66
2022-09-28T16:31:23.158Z,96557.75
2022-09-28T16:33:58.894Z,96537.09
2022-09-28T16:36:28.009Z,96555.91
2022-09-28T16:38:54.629Z,96388.66
2022-09-28T16:41:27.582Z,96495.81
2022-09-28T16:43:58.150Z,96487.78
2022-09-28T16:46:32.828Z,96312.75
2022-09-28T16:48:59.585Z,96490.50
2022-09-28T16:51:26.136Z,96546.41
2022-09-28T16:53:53.100Z,96540.75
2022-09-28T16:56:19.689Z,96565.19
2022-09-28T16:58:47.676Z,96368.69
2022-09-28T17:01:14.397Z,96509.44
2022-09-28T17:03:41.179Z,96535.56
2022-09-28T17:06:11.879Z,96535.81
2022-09-28T17:08:38.725Z,96284.13
2022-09-28T17:11:24.456Z,96518.56
2022-09-28T17:13:51.964Z,96461.81
2022-09-28T17:16:32.624Z,96589.28
2022-09-28T17:19:19.230Z,96572.66
2022-09-28T17:21:47.785Z,96509.50
2022-09-28T17:24:14.443Z,96593.72
2022-09-28T17:26:41.561Z,96589.53
2022-09-28T17:29:12.105Z,96494.44
2022-09-28T17:31:39.018Z,96330.31
2022-09-28T17:34:05.643Z,96590.03
2022-09-28T17:36:32.367Z,96554.31
2022-09-28T17:38:58.975Z,96600.38
2022-09-28T17:41:28.721Z,96579.09
2022-09-28T17:44:02.929Z,96565.38
2022-09-28T17:46:34.645Z,96586.09
2022-09-28T17:49:04.098Z,96631.19
2022-09-28T17:51:33.192Z,96582.16
2022-09-28T17:54:01.013Z,96566.53
2022-09-28T17:56:32.184Z,96636.91
2022-09-28T17:59:05.571Z,96635.28
2022-09-28T18:01:33.237Z,96637.28
2022-09-28T18:04:04.253Z,96544.81
2022-09-28T18:06:31.808Z,96590.25
2022-09-28T18:08:58.376Z,96597.19
2022-09-28T18:11:25.302Z,96575.81
2022-09-28T18:13:51.958Z,96553.50
2022-09-28T18:16:18.978Z,96590.78
2022-09-28T18:18:45.753Z,96615.09
2022-09-28T18:21:12.601Z,96612.09
2022-09-28T18:23:39.295Z,96602.75
2022-09-28T18:26:13.721Z,96299.38
2022-09-28T18:28:40.531Z,96353.94
2022-09-28T18:31:12.937Z,96619.19
2022-09-28T18:33:52.295Z,96585.72
2022-09-28T18:36:18.991Z,96589.19
2022-09-28T18:38:45.577Z,96577.84
2022-09-28T18:41:15.023Z,96561.63
2022-09-28T18:43:42.923Z,96606.88
2022-09-28T18:46:11.464Z,96652.50
2022-09-28T18:48:38.862Z,96606.66
2022-09-28T18:51:08.870Z,96590.22
2022-09-28T18:53:35.508Z,96546.63
2022-09-28T18:56:07.518Z,96655.94
2022-09-28T18:58:36.422Z,96651.16
2022-09-28T19:01:29.339Z,96666.38
2022-09-28T19:03:59.573Z,96624.50
2022-09-28T19:06:26.233Z,96616.66
2022-09-28T19:08:54.089Z,96668.06
2022-09-28T19:11:20.833Z,96586.28
2022-09-28T19:13:47.629Z,96614.91
2022-09-28T19:16:20.197Z,96618.16
2022-09-28T19:18:48.054Z,96668.00
2022-09-28T19:21:15.857Z,96663.81
2022-09-28T19:23:48.225Z,96665.09
2022-09-28T19:26:19.048Z,96668.63
2022-09-28T19:28:48.782Z,96609.91
2022-09-28T19:31:18.906Z,96598.44
2022-09-28T19:33:45.585Z,96636.63
2022-09-28T19:36:15.569Z,96665.19
2022-09-28T19:38:42.176Z,96618.31
2022-09-28T19:41:20.557Z,96630.44
2022-09-28T19:43:47.394Z,96496.59
2022-09-28T19:46:14.108Z,96382.03
2022-09-28T19:48:41.092Z,96563.63
2022-09-28T19:51:07.724Z,96661.19
2022-09-28T19:53:36.284Z,96688.09
2022-09-28T19:56:04.848Z,96615.97
2022-09-28T19:58:34.227Z,96688.22
2022-09-28T20:01:04.469Z,96617.66
2022-09-28T20:03:31.147Z,96649.00
2022-09-28T20:05:58.940Z,96653.50
2022-09-28T20:08:26.372Z,96702.72
2022-09-28T20:10:54.802Z,96699.03
2022-09-28T20:13:22.545Z,96621.03
2022-09-28T20:15:49.348Z,96619.47
2022-09-28T20:18:16.170Z,96618.84
2022-09-28T20:20:42.760Z,96678.00
2022-09-28T20:23:09.791Z,96437.59
2022-09-28T20:25:36.617Z,96477.63
2022-09-28T20:28:03.385Z,96629.44
2022-09-28T20:30:29.955Z,96621.72
2022-09-28T20:32:56.843Z,96648.06
2022-09-28T20:35:32.739Z,96669.00
2022-09-28T20:38:00.104Z,96652.84
2022-09-28T20:40:26.798Z,96653.22
2022-09-28T20:42:53.597Z,96435.66
2022-09-28T20:45:20.284Z,96668.34
2022-09-28T20:47:46.929Z,96649.00
2022-09-28T20:50:13.593Z,96594.75
2022-09-28T20:52:40.326Z,96685.06
2022-09-28T20:55:07.275Z,96641.59
2022-09-28T20:57:33.903Z,96507.72
2022-09-28T21:00:00.711Z,96672.59
2022-09-28T21:02:27.478Z,96650.03
2022-09-28T21:04:59.441Z,96675.72
2022-09-28T21:07:26.309Z,96659.34
2022-09-28T21:09:52.911Z,96698.69
2022-09-28T21:12:19.559Z,96735.09
2022-09-28T21:14:46.186Z,96664.59
2022-09-28T21:17:13.012Z,96689.91
2022-09-28T21:19:39.770Z,96706.78
2022-09-28T21:22:06.507Z,96651.81
2022-09-28T21:24:33.079Z,96670.41
2022-09-28T21:26:59.732Z,96714.94
2022-09-28T21:29:26.401Z,96412.75
2022-09-28T21:31:53.053Z,96707.16
2022-09-28T21:34:21.319Z,96670.31
2022-09-28T21:36:51.638Z,96736.78
2022-09-28T21:39:19.939Z,96720.88
2022-09-28T21:41:46.631Z,96709.81
2022-09-28T21:44:13.360Z,96749.34
2022-09-28T21:46:40.072Z,96674.25
2022-09-28T21:49:08.041Z,96757.06
2022-09-28T21:51:35.680Z,96766.56
2022-09-28T21:54:02.276Z,96727.28
2022-09-28T21:56:28.940Z,96689.78
2022-09-28T21:58:55.559Z,96753.44
2022-09-28T22:01:24.443Z,96768.94
2022-09-28T22:03:53.667Z,96687.34
2022-09-28T22:06:22.762Z,96743.78
2022-09-28T22:08:49.772Z,96765.19
2022-09-28T22:11:20.031Z,96719.63
2022-09-28T22:13:49.210Z,96695.03
2022-09-28T22:16:18.127Z,96613.66
2022-09-28T22:18:45.657Z,96524.25
2022-09-28T22:21:30.869Z,96381.78
2022-09-28T22:23:59.021Z,96758.50
2022-09-28T22:26:26.445Z,96784.28
2022-09-28T22:28:56.022Z,96734.13
2022-09-28T22:31:26.278Z,96782.25
2022-09-28T22:33:53.648Z,96779.25
2022-09-28T22:36:21.353Z,96777.66
2022-09-28T22:38:48.788Z,96732.69
2022-09-28T22:41:17.428Z,96773.38
2022-09-28T22:43:44.424Z,96769.94
2022-09-28T22:46:16.966Z,96753.47
2022-09-28T22:48:51.798Z,96773.41
2022-09-28T22:51:19.116Z,96751.84
2022-09-28T22:53:46.131Z,96743.16
2022-09-28T22:56:18.211Z,96743.72
2022-09-28T22:58:46.124Z,96708.69
2022-09-28T23:01:18.663Z,96713.09
2022-09-28T23:03:46.198Z,96729.25
2022-09-28T23:06:15.371Z,96617.03
2022-09-28T23:08:42.376Z,96686.69
2022-09-28T23:11:09.072Z,96716.72
2022-09-28T23:13:35.855Z,96703.63
2022-09-28T23:16:05.082Z,96750.97
2022-09-28T23:18:35.652Z,96683.69
2022-09-28T23:21:04.850Z,96740.50
2022-09-28T23:23:32.679Z,96766.28
2022-09-28T23:25:59.667Z,96675.41
2022-09-28T23:28:27.381Z,96724.34
2022-09-28T23:30:54.441Z,96775.34
2022-09-28T23:33:22.011Z,96700.16
2022-09-28T23:35:48.988Z,96620.84
2022-09-28T23:38:17.601Z,96766.47
2022-09-28T23:40:47.727Z,96770.09
2022-09-28T23:43:14.877Z,96767.91
2022-09-28T23:45:44.999Z,96738.47
2022-09-28T23:48:12.102Z,96702.59
2022-09-28T23:50:38.746Z,96705.25
2022-09-28T23:53:05.458Z,96756.19
2022-09-28T23:55:32.138Z,96664.78
2022-09-28T23:57:58.844Z,96598.16
